Time;durP1;ratioP1;P1;durP2;ratioP2;P2;SDS_P1;SDS_P2;PMS_P1;PMS_P2;Temp;Humidity;BMP_temperature;BMP_pressure;BME280_temperature;BME280_humidity;BME280_pressure;Samples;Min_cycle;Max_cycle;Signal;HPM_P1;HPM_P2
2024/01/07 00:02:37;;;;;;;;;;;;;;;;;;5057399;28;19989;-92
2024/01/07 00:05:21;;;;;;;;;;;;;;;;;;5052541;28;20070;-91
2024/01/07 00:08:06;;;;;;;;;;;;;;;;;;5057231;28;20004;-91
2024/01/07 00:10:51;;;;;;;;;;;;;;;;;;5052946;28;19959;-92
2024/01/07 00:13:36;;;;;;;;;;;;;;;;;;5074898;28;19957;-91
2024/01/07 00:16:20;;;;;;;;;;;;;;;;;;5074087;28;19927;-90
2024/01/07 00:19:05;;;;;;;;;;;;;;;;;;5055089;28;19986;-91
2024/01/07 00:21:50;;;;;;;;;;;;;;;;;;5058885;28;20288;-91
2024/01/07 00:24:35;;;;;;;;;;;;;;;;;;5069563;28;25090;-90
2024/01/07 00:27:19;;;;;;;;;;;;;;;;;;5074165;28;19966;-91
2024/01/07 00:30:04;;;;;;;;;;;;;;;;;;5057133;28;19966;-88
2024/01/07 00:32:51;;;;;;;;;;;;;;;;;;5068289;28;19927;-91
2024/01/07 00:35:35;;;;;;;;;;;;;;;;;;5054993;28;19958;-91
2024/01/07 00:38:20;;;;;;;;;;;;;;;;;;5040574;28;19970;-90
2024/01/07 00:41:05;;;;;;;;;;;;;;;;;;5055698;28;20287;-91
2024/01/07 00:43:50;;;;;;;;;;;;;;;;;;5059762;28;20011;-92
2024/01/07 00:46:34;;;;;;;;;;;;;;;;;;5059373;28;19923;-93
2024/01/07 00:49:19;;;;;;;;;;;;;;;;;;5052565;28;20031;-91
2024/01/07 00:52:04;;;;;;;;;;;;;;;;;;5038498;28;20493;-92
2024/01/07 00:54:48;;;;;;;;;;;;;;;;;;5045786;28;19997;-90
2024/01/07 00:57:33;;;;;;;;;;;;;;;;;;5058860;28;20034;-91
2024/01/07 01:00:18;;;;;;;;;;;;;;;;;;5057051;28;19935;-91
2024/01/07 01:03:03;;;;;;;;;;;;;;;;;;5044459;28;19969;-92
2024/01/07 01:05:47;;;;;;;;;;;;;;;;;;5072707;28;19920;-91
2024/01/07 01:08:32;;;;;;;;;;;;;;;;;;5057089;28;20043;-90
2024/01/07 01:11:17;;;;;;;;;;;;;;;;;;5059029;28;19964;-93
2024/01/07 01:14:02;;;;;;;;;;;;;;;;;;5066014;28;19966;-93
2024/01/07 01:16:46;;;;;;;;;;;;;;;;;;5093455;28;19986;-92
2024/01/07 01:19:31;;;;;;;;;;;;;;;;;;5078680;28;20577;-91
2024/01/07 01:22:16;;;;;;;;;;;;;;;;;;5080807;28;20020;-91
2024/01/07 01:25:01;;;;;;;;;;;;;;;;;;5092409;28;19954;-92
2024/01/07 01:27:46;;;;;;;;;;;;;;;;;;5077244;28;19922;-91
2024/01/07 01:30:31;;;;;;;;;;;;;;;;;;5077722;28;19970;-92
2024/01/07 01:33:16;;;;;;;;;;;;;;;;;;5077992;28;19996;-93
2024/01/07 01:36:01;;;;;;;;;;;;;;;;;;5078255;28;20351;-93
2024/01/07 01:38:46;;;;;;;;;;;;;;;;;;5067258;28;20288;-92
2024/01/07 01:41:30;;;;;;;;;;;;;;;;;;5071058;28;19973;-92
2024/01/07 01:44:15;;;;;;;;;;;;;;;;;;5085257;28;20024;-91
2024/01/07 01:47:00;;;;;;;;;;;;;;;;;;5073385;28;19970;-92
2024/01/07 01:49:44;;;;;;;;;;;;;;;;;;5074308;28;19922;-91
2024/01/07 01:52:29;;;;;;;;;;;;;;;;;;5086527;28;20083;-92
2024/01/07 01:55:14;;;;;;;;;;;;;;;;;;5063950;28;19993;-91
2024/01/07 01:57:59;;;;;;;;;;;;;;;;;;5065065;28;20499;-91
2024/01/07 02:00:44;;;;;;;;;;;;;;;;;;5078029;28;20036;-91
2024/01/07 02:03:28;;;;;;;;;;;;;;;;;;5091510;28;20032;-93
2024/01/07 02:06:13;;;;;;;;;;;;;;;;;;5078360;28;20442;-93
2024/01/07 02:08:58;;;;;;;;;;;;;;;;;;5089725;28;19996;-91
2024/01/07 02:11:42;;;;;;;;;;;;;;;;;;5085675;28;20001;-92
2024/01/07 02:14:28;;;;;;;;;;;;;;;;;;5046693;28;19924;-91
2024/01/07 02:17:13;;;;;;;;;;;;;;;;;;5060347;28;19970;-91
2024/01/07 02:19:57;;;;;;;;;;;;;;;;;;5072177;28;20092;-92
2024/01/07 02:22:42;;;;;;;;;;;;;;;;;;5056852;28;19935;-93
2024/01/07 02:25:27;;;;;;;;;;;;;;;;;;5044456;28;19924;-91
2024/01/07 02:28:12;;;;;;;;;;;;;;;;;;5072789;28;19993;-92
2024/01/07 02:30:57;;;;;;;;;;;;;;;;;;5044325;28;19919;-92
2024/01/07 02:33:41;;;;;;;;;;;;;;;;;;5056231;28;19996;-91
2024/01/07 02:36:26;;;;;;;;;;;;;;;;;;5056830;28;20445;-91
2024/01/07 02:39:11;;;;;;;;;;;;;;;;;;5044964;28;20388;-92
2024/01/07 02:41:55;;;;;;;;;;;;;;;;;;5072009;28;19919;-92
2024/01/07 02:44:40;;;;;;;;;;;;;;;;;;5042515;28;20285;-91
2024/01/07 02:47:25;;;;;;;;;;;;;;;;;;5056840;28;19919;-90
2024/01/07 02:50:09;;;;;;;;;;;;;;;;;;5056956;28;19919;-92
2024/01/07 02:52:54;;;;;;;;;;;;;;;;;;5057304;28;19938;-92
2024/01/07 02:55:39;;;;;;;;;;;;;;;;;;5044020;28;19920;-91
2024/01/07 02:58:23;;;;;;;;;;;;;;;;;;5060633;28;19927;-92
2024/01/07 03:01:09;;;;;;;;;;;;;;;;;;5041057;28;19962;-92
2024/01/07 03:03:53;;;;;;;;;;;;;;;;;;5066586;28;19970;-92
2024/01/07 03:06:38;;;;;;;;;;;;;;;;;;5069958;28;19920;-91
2024/01/07 03:09:23;;;;;;;;;;;;;;;;;;5055142;28;20063;-91
2024/01/07 03:12:08;;;;;;;;;;;;;;;;;;5070715;28;19927;-92
2024/01/07 03:14:52;;;;;;;;;;;;;;;;;;5044620;28;19936;-91
2024/01/07 03:17:37;;;;;;;;;;;;;;;;;;5056270;28;20433;-92
2024/01/07 03:20:22;;;;;;;;;;;;;;;;;;5059837;28;20489;-91
2024/01/07 03:23:06;;;;;;;;;;;;;;;;;;5059805;28;20012;-91
2024/01/07 03:25:51;;;;;;;;;;;;;;;;;;5056562;28;19962;-92
2024/01/07 03:28:36;;;;;;;;;;;;;;;;;;5071319;28;19920;-91
2024/01/07 03:31:23;;;;;;;;;;;;;;;;;;5057184;28;19981;-91
2024/01/07 03:34:07;;;;;;;;;;;;;;;;;;5056532;28;19957;-92
2024/01/07 03:36:52;;;;;;;;;;;;;;;;;;5056175;28;20129;-92
2024/01/07 03:39:37;;;;;;;;;;;;;;;;;;5056050;28;20062;-92
2024/01/07 03:42:21;;;;;;;;;;;;;;;;;;5056448;28;19985;-93
2024/01/07 03:45:06;;;;;;;;;;;;;;;;;;5071409;28;19974;-93
2024/01/07 03:47:51;;;;;;;;;;;;;;;;;;5071285;28;20438;-92
2024/01/07 03:50:35;;;;;;;;;;;;;;;;;;5055405;28;19971;-91
2024/01/07 03:53:20;;;;;;;;;;;;;;;;;;5036983;28;19970;-91
2024/01/07 03:56:05;;;;;;;;;;;;;;;;;;5068068;28;20050;-91
2024/01/07 03:58:50;;;;;;;;;;;;;;;;;;5055958;28;20062;-93
2024/01/07 04:01:34;;;;;;;;;;;;;;;;;;5068971;28;20009;-90
2024/01/07 04:04:19;;;;;;;;;;;;;;;;;;5071240;28;19990;-92
2024/01/07 04:07:04;;;;;;;;;;;;;;;;;;5070745;28;19974;-92
2024/01/07 04:09:49;;;;;;;;;;;;;;;;;;5049334;28;20013;-92
2024/01/07 04:12:33;;;;;;;;;;;;;;;;;;5061909;28;20095;-91
2024/01/07 04:15:18;;;;;;;;;;;;;;;;;;5076125;28;20454;-92
2024/01/07 04:18:03;;;;;;;;;;;;;;;;;;5063303;28;20103;-91
2024/01/07 04:20:47;;;;;;;;;;;;;;;;;;5075377;28;19982;-91
2024/01/07 04:23:32;;;;;;;;;;;;;;;;;;5076279;28;20327;-92
2024/01/07 04:26:17;;;;;;;;;;;;;;;;;;5064507;28;20331;-92
2024/01/07 04:29:01;;;;;;;;;;;;;;;;;;5075302;28;19966;-92
2024/01/07 04:31:46;;;;;;;;;;;;;;;;;;5091151;28;19988;-91
2024/01/07 04:34:31;;;;;;;;;;;;;;;;;;5084020;28;19997;-91
2024/01/07 04:37:16;;;;;;;;;;;;;;;;;;5079584;28;19981;-92
2024/01/07 04:40:01;;;;;;;;;;;;;;;;;;5078956;28;20746;-93
2024/01/07 04:42:45;;;;;;;;;;;;;;;;;;5095294;28;20016;-90
2024/01/07 04:45:30;;;;;;;;;;;;;;;;;;5085149;28;20116;-93
2024/01/07 04:48:15;;;;;;;;;;;;;;;;;;5079823;28;20001;-91
2024/01/07 04:50:59;;;;;;;;;;;;;;;;;;5079378;28;20086;-91
2024/01/07 04:53:44;;;;;;;;;;;;;;;;;;5085061;28;20020;-92
2024/01/07 04:56:29;;;;;;;;;;;;;;;;;;5081962;28;20067;-91
2024/01/07 04:59:16;;;;;;;;;;;;;;;;;;5093945;28;19978;-91
2024/01/07 05:02:01;;;;;;;;;;;;;;;;;;5084591;28;19974;-91
2024/01/07 05:04:46;;;;;;;;;;;;;;;;;;5109258;28;19970;-90
2024/01/07 05:07:30;;;;;;;;;;;;;;;;;;5094864;28;19974;-91
2024/01/07 05:10:15;;;;;;;;;;;;;;;;;;5092626;28;20001;-90
2024/01/07 05:13:04;;;;;;;;;;;;;;;;;;5081966;28;20035;-92
2024/01/07 05:15:53;;;;;;;;;;;;;;;;;;5091833;28;20074;-91
2024/01/07 05:18:37;;;;;;;;;;;;;;;;;;5091391;28;19974;-91
2024/01/07 05:21:22;;;;;;;;;;;;;;;;;;5049815;28;19997;-91
2024/01/07 05:24:07;;;;;;;;;;;;;;;;;;5076014;28;20593;-92
2024/01/07 05:26:52;;;;;;;;;;;;;;;;;;5075171;28;20048;-92
2024/01/07 05:29:36;;;;;;;;;;;;;;;;;;5064820;28;20063;-91
2024/01/07 05:32:21;;;;;;;;;;;;;;;;;;5059662;28;20009;-91
2024/01/07 05:35:06;;;;;;;;;;;;;;;;;;5058384;28;19950;-93
2024/01/07 05:37:50;;;;;;;;;;;;;;;;;;5074374;28;19958;-92
2024/01/07 05:40:35;;;;;;;;;;;;;;;;;;5059275;28;19919;-91
2024/01/07 05:43:20;;;;;;;;;;;;;;;;;;5044903;28;20064;-91
2024/01/07 05:46:05;;;;;;;;;;;;;;;;;;5057683;28;19957;-93
2024/01/07 05:48:49;;;;;;;;;;;;;;;;;;5064103;28;20307;-90
2024/01/07 05:51:34;;;;;;;;;;;;;;;;;;5067573;28;19919;-92
2024/01/07 05:54:19;;;;;;;;;;;;;;;;;;5069526;28;19955;-90
2024/01/07 05:57:03;;;;;;;;;;;;;;;;;;5058059;28;20033;-91
2024/01/07 05:59:50;;;;;;;;;;;;;;;;;;5056072;28;19966;-92
2024/01/07 06:02:34;;;;;;;;;;;;;;;;;;5073687;28;19954;-91
2024/01/07 06:05:19;;;;;;;;;;;;;;;;;;5050384;28;19914;-92
2024/01/07 06:08:04;;;;;;;;;;;;;;;;;;5048804;28;19935;-91
2024/01/07 06:10:48;;;;;;;;;;;;;;;;;;5058377;28;19950;-91
2024/01/07 06:13:33;;;;;;;;;;;;;;;;;;5073808;28;20388;-92
2024/01/07 06:16:18;;;;;;;;;;;;;;;;;;5057211;28;20472;-92
2024/01/07 06:19:02;;;;;;;;;;;;;;;;;;5057374;28;19918;-91
2024/01/07 06:21:47;;;;;;;;;;;;;;;;;;5058999;28;20277;-90
2024/01/07 06:24:32;;;;;;;;;;;;;;;;;;5057982;28;19979;-92
2024/01/07 06:27:17;;;;;;;;;;;;;;;;;;5057106;28;20049;-92
2024/01/07 06:30:02;;;;;;;;;;;;;;;;;;5056982;28;20281;-92
2024/01/07 06:32:48;;;;;;;;;;;;;;;;;;5063674;28;19915;-92
2024/01/07 06:35:32;;;;;;;;;;;;;;;;;;5070595;28;19915;-91
2024/01/07 06:38:17;;;;;;;;;;;;;;;;;;5054673;28;19958;-91
2024/01/07 06:41:04;;;;;;;;;;;;;;;;;;5057422;28;20485;-91
2024/01/07 06:43:49;;;;;;;;;;;;;;;;;;5061484;28;20023;-91
2024/01/07 06:46:34;;;;;;;;;;;;;;;;;;5057179;28;20069;-90
2024/01/07 06:49:19;;;;;;;;;;;;;;;;;;5057189;28;19966;-91
2024/01/07 06:52:04;;;;;;;;;;;;;;;;;;5046978;28;19939;-92
2024/01/07 06:54:48;;;;;;;;;;;;;;;;;;5072717;28;19979;-92
2024/01/07 06:57:33;;;;;;;;;;;;;;;;;;5055905;28;19919;-89
2024/01/07 07:00:18;;;;;;;;;;;;;;;;;;5038332;28;19919;-93
2024/01/07 07:03:03;;;;;;;;;;;;;;;;;;5055107;28;19988;-89
2024/01/07 07:05:47;;;;;;;;;;;;;;;;;;5053361;28;19958;-92
2024/01/07 07:08:32;;;;;;;;;;;;;;;;;;5045632;28;19915;-91
2024/01/07 07:11:17;;;;;;;;;;;;;;;;;;5070280;28;20466;-93
2024/01/07 07:14:02;;;;;;;;;;;;;;;;;;5071262;28;20396;-92
2024/01/07 07:16:47;;;;;;;;;;;;;;;;;;5046187;28;20010;-92
2024/01/07 07:19:31;;;;;;;;;;;;;;;;;;5050224;28;20292;-92
2024/01/07 07:22:16;;;;;;;;;;;;;;;;;;5051473;28;25164;-92
2024/01/07 07:25:01;;;;;;;;;;;;;;;;;;5072394;28;19928;-92
2024/01/07 07:27:46;;;;;;;;;;;;;;;;;;5048376;28;20011;-92
2024/01/07 07:30:31;;;;;;;;;;;;;;;;;;5046572;28;19965;-91
2024/01/07 07:33:16;;;;;;;;;;;;;;;;;;5045063;28;19928;-93
2024/01/07 07:36:00;;;;;;;;;;;;;;;;;;5044522;28;19989;-93
2024/01/07 07:38:45;;;;;;;;;;;;;;;;;;5055271;28;19958;-92
2024/01/07 07:41:30;;;;;;;;;;;;;;;;;;5070964;28;20023;-91
2024/01/07 07:44:15;;;;;;;;;;;;;;;;;;5071412;28;19953;-91
2024/01/07 07:46:59;;;;;;;;;;;;;;;;;;5044742;28;20307;-92
2024/01/07 07:49:44;;;;;;;;;;;;;;;;;;5041844;28;19923;-91
2024/01/07 07:52:29;;;;;;;;;;;;;;;;;;5054549;28;19962;-92
2024/01/07 07:55:13;;;;;;;;;;;;;;;;;;5045576;28;19980;-93
2024/01/07 07:57:58;;;;;;;;;;;;;;;;;;5071068;28;20011;-92
2024/01/07 08:00:43;;;;;;;;;;;;;;;;;;5056116;28;20044;-91
2024/01/07 08:03:27;;;;;;;;;;;;;;;;;;5041907;28;19958;-91
2024/01/07 08:06:12;;;;;;;;;;;;;;;;;;5041237;28;20029;-90
2024/01/07 08:08:57;;;;;;;;;;;;;;;;;;5045567;28;19955;-88
2024/01/07 08:11:42;;;;;;;;;;;;;;;;;;5063563;28;20280;-89
2024/01/07 08:14:26;;;;;;;;;;;;;;;;;;5058587;28;20348;-89
2024/01/07 08:17:11;;;;;;;;;;;;;;;;;;5066869;28;19980;-91
2024/01/07 08:19:56;;;;;;;;;;;;;;;;;;5050266;28;19940;-90
2024/01/07 08:22:40;;;;;;;;;;;;;;;;;;5060466;28;19982;-90
2024/01/07 08:25:25;;;;;;;;;;;;;;;;;;5060009;28;19916;-89
2024/01/07 08:28:10;;;;;;;;;;;;;;;;;;5051395;28;19970;-89
2024/01/07 08:30:56;;;;;;;;;;;;;;;;;;5058122;28;20487;-86
2024/01/07 08:33:40;;;;;;;;;;;;;;;;;;5074869;28;20038;-89
2024/01/07 08:36:25;;;;;;;;;;;;;;;;;;5061201;28;20323;-88
2024/01/07 08:39:10;;;;;;;;;;;;;;;;;;5056381;28;20012;-88
2024/01/07 08:41:55;;;;;;;;;;;;;;;;;;5074504;28;19915;-86
2024/01/07 08:44:40;;;;;;;;;;;;;;;;;;5074872;28;19915;-87
2024/01/07 08:47:25;;;;;;;;;;;;;;;;;;5059088;28;19942;-88
2024/01/07 08:50:10;;;;;;;;;;;;;;;;;;5074087;28;19915;-88
2024/01/07 08:52:54;;;;;;;;;;;;;;;;;;5066416;28;19954;-86
2024/01/07 08:55:39;;;;;;;;;;;;;;;;;;5067372;28;19916;-87
2024/01/07 08:58:24;;;;;;;;;;;;;;;;;;5045070;28;20011;-84
2024/01/07 09:01:08;;;;;;;;;;;;;;;;;;5061616;28;19970;-88
2024/01/07 09:03:53;;;;;;;;;;;;;;;;;;5064484;28;19934;-90
2024/01/07 09:06:38;;;;;;;;;;;;;;;;;;5070564;28;20086;-89
2024/01/07 09:09:23;;;;;;;;;;;;;;;;;;5066167;28;19915;-89
2024/01/07 09:12:08;;;;;;;;;;;;;;;;;;5073658;28;19962;-89
2024/01/07 09:14:53;;;;;;;;;;;;;;;;;;5064642;28;19931;-88
2024/01/07 09:17:37;;;;;;;;;;;;;;;;;;5057934;28;20505;-89
2024/01/07 09:20:22;;;;;;;;;;;;;;;;;;5072234;28;20391;-90
2024/01/07 09:23:07;;;;;;;;;;;;;;;;;;5054026;28;19943;-87
2024/01/07 09:25:52;;;;;;;;;;;;;;;;;;5054652;28;19918;-87
2024/01/07 09:28:36;;;;;;;;;;;;;;;;;;5066118;28;19919;-86
2024/01/07 09:31:21;;;;;;;;;;;;;;;;;;5056968;28;19916;-82
2024/01/07 09:34:09;;;;;;;;;;;;;;;;;;5060342;28;20393;-89
2024/01/07 09:36:54;;;;;;;;;;;;;;;;;;5068318;28;20096;-86
2024/01/07 09:39:39;;;;;;;;;;;;;;;;;;5065451;28;19942;-86
2024/01/07 09:42:23;;;;;;;;;;;;;;;;;;5073964;28;19990;-91
2024/01/07 09:45:08;;;;;;;;;;;;;;;;;;5073332;28;19915;-87
2024/01/07 09:47:53;;;;;;;;;;;;;;;;;;5058663;28;19958;-86
2024/01/07 09:50:38;;;;;;;;;;;;;;;;;;5058241;28;20009;-86
2024/01/07 09:53:22;;;;;;;;;;;;;;;;;;5053961;28;19966;-86
2024/01/07 09:56:07;;;;;;;;;;;;;;;;;;5070331;28;19969;-86
2024/01/07 09:58:52;;;;;;;;;;;;;;;;;;5073181;28;19919;-86
2024/01/07 10:01:37;;;;;;;;;;;;;;;;;;5055544;28;19934;-85
2024/01/07 10:04:21;;;;;;;;;;;;;;;;;;5073245;28;19957;-90
2024/01/07 10:07:06;;;;;;;;;;;;;;;;;;5062939;28;20029;-86
2024/01/07 10:09:51;;;;;;;;;;;;;;;;;;5040277;28;19916;-91
2024/01/07 10:12:35;;;;;;;;;;;;;;;;;;5061595;28;19993;-87
2024/01/07 10:15:20;;;;;;;;;;;;;;;;;;5078677;28;20013;-87
2024/01/07 10:18:08;;;;;;;;;;;;;;;;;;5064887;28;20016;-92
2024/01/07 10:20:54;;;;;;;;;;;;;;;;;;5077551;28;19992;-87
2024/01/07 10:23:38;;;;;;;;;;;;;;;;;;5078023;28;20413;-88
2024/01/07 10:26:23;;;;;;;;;;;;;;;;;;5093364;28;20003;-86
2024/01/07 10:29:08;;;;;;;;;;;;;;;;;;5093818;28;19954;-88
2024/01/07 10:31:52;;;;;;;;;;;;;;;;;;5091542;28;19915;-89
2024/01/07 10:34:37;;;;;;;;;;;;;;;;;;5067993;28;20374;-89
2024/01/07 10:37:22;;;;;;;;;;;;;;;;;;5093221;28;19967;-87
2024/01/07 10:40:07;;;;;;;;;;;;;;;;;;5077443;28;20287;-88
2024/01/07 10:42:51;;;;;;;;;;;;;;;;;;5076684;28;19915;-88
2024/01/07 10:45:36;;;;;;;;;;;;;;;;;;5077963;28;20365;-89
2024/01/07 10:48:21;;;;;;;;;;;;;;;;;;5092417;28;20011;-88
2024/01/07 10:51:05;;;;;;;;;;;;;;;;;;5077407;28;19915;-88
2024/01/07 10:53:50;;;;;;;;;;;;;;;;;;5071081;28;19959;-87
2024/01/07 10:56:35;;;;;;;;;;;;;;;;;;5080279;28;19931;-89
2024/01/07 10:59:20;;;;;;;;;;;;;;;;;;5074504;28;19919;-87
2024/01/07 11:02:04;;;;;;;;;;;;;;;;;;5065822;28;19990;-88
2024/01/07 11:04:49;;;;;;;;;;;;;;;;;;5091844;28;19965;-89
2024/01/07 11:07:37;;;;;;;;;;;;;;;;;;5077528;28;19956;-90
2024/01/07 11:10:22;;;;;;;;;;;;;;;;;;5093158;28;19954;-88
2024/01/07 11:13:06;;;;;;;;;;;;;;;;;;5078518;28;19923;-88
2024/01/07 11:15:51;;;;;;;;;;;;;;;;;;5070982;28;25054;-87
2024/01/07 11:18:36;;;;;;;;;;;;;;;;;;5046217;28;19955;-87
2024/01/07 11:21:21;;;;;;;;;;;;;;;;;;5057268;28;20004;-87
2024/01/07 11:24:05;;;;;;;;;;;;;;;;;;5072171;28;19920;-87
2024/01/07 11:26:50;;;;;;;;;;;;;;;;;;5050497;28;19920;-86
2024/01/07 11:29:35;;;;;;;;;;;;;;;;;;5048601;28;19919;-86
2024/01/07 11:32:19;;;;;;;;;;;;;;;;;;5048312;28;19956;-85
2024/01/07 11:35:04;;;;;;;;;;;;;;;;;;5065781;28;19938;-87
2024/01/07 11:37:49;;;;;;;;;;;;;;;;;;5056720;28;19974;-87
2024/01/07 11:40:34;;;;;;;;;;;;;;;;;;5072591;28;19947;-87
2024/01/07 11:43:18;;;;;;;;;;;;;;;;;;5070891;28;20003;-86
2024/01/07 11:46:03;;;;;;;;;;;;;;;;;;5055813;28;20105;-87
2024/01/07 11:48:48;;;;;;;;;;;;;;;;;;5055803;28;19940;-87
2024/01/07 11:51:32;;;;;;;;;;;;;;;;;;5056995;28;20023;-85
2024/01/07 11:54:17;;;;;;;;;;;;;;;;;;5051675;28;19970;-86
2024/01/07 11:57:02;;;;;;;;;;;;;;;;;;5070483;28;19981;-82
2024/01/07 11:59:46;;;;;;;;;;;;;;;;;;5071075;28;19968;-87
2024/01/07 12:02:32;;;;;;;;;;;;;;;;;;5056362;28;20481;-87
2024/01/07 12:05:17;;;;;;;;;;;;;;;;;;5045148;28;19968;-85
2024/01/07 12:08:02;;;;;;;;;;;;;;;;;;5055967;28;19962;-88
2024/01/07 12:10:47;;;;;;;;;;;;;;;;;;5070735;28;19970;-91
2024/01/07 12:13:32;;;;;;;;;;;;;;;;;;5071475;28;19982;-85
2024/01/07 12:16:16;;;;;;;;;;;;;;;;;;5065541;28;19987;-85
2024/01/07 12:19:01;;;;;;;;;;;;;;;;;;5069032;28;19968;-86
2024/01/07 12:21:47;;;;;;;;;;;;;;;;;;5066944;28;19971;-85
2024/01/07 12:24:32;;;;;;;;;;;;;;;;;;5068721;28;19919;-86
2024/01/07 12:27:17;;;;;;;;;;;;;;;;;;5056267;28;20980;-86
2024/01/07 12:30:02;;;;;;;;;;;;;;;;;;5071617;28;19947;-86
2024/01/07 12:32:46;;;;;;;;;;;;;;;;;;5050577;28;19923;-85
2024/01/07 12:35:31;;;;;;;;;;;;;;;;;;5055559;28;19965;-85
2024/01/07 12:38:16;;;;;;;;;;;;;;;;;;5065050;28;19991;-85
2024/01/07 12:41:00;;;;;;;;;;;;;;;;;;5063575;28;19928;-86
2024/01/07 12:43:45;;;;;;;;;;;;;;;;;;5044400;28;19955;-85
2024/01/07 12:46:31;;;;;;;;;;;;;;;;;;5071989;28;19948;-85
2024/01/07 12:49:16;;;;;;;;;;;;;;;;;;5056519;28;20434;-87
2024/01/07 12:52:01;;;;;;;;;;;;;;;;;;5037290;28;20139;-85
2024/01/07 12:54:47;;;;;;;;;;;;;;;;;;5055987;28;19981;-84
2024/01/07 12:57:31;;;;;;;;;;;;;;;;;;5075259;28;19919;-88
2024/01/07 13:00:16;;;;;;;;;;;;;;;;;;5049621;28;20024;-88
2024/01/07 13:03:01;;;;;;;;;;;;;;;;;;5074675;28;20283;-87
2024/01/07 13:05:46;;;;;;;;;;;;;;;;;;5059793;28;20357;-87
2024/01/07 13:08:31;;;;;;;;;;;;;;;;;;5059253;28;25063;-87
2024/01/07 13:11:16;;;;;;;;;;;;;;;;;;5045360;28;20055;-87
2024/01/07 13:14:01;;;;;;;;;;;;;;;;;;5073931;28;20391;-88
2024/01/07 13:16:46;;;;;;;;;;;;;;;;;;5049119;28;20384;-87
2024/01/07 13:19:31;;;;;;;;;;;;;;;;;;5074117;28;19923;-87
2024/01/07 13:22:15;;;;;;;;;;;;;;;;;;5058208;28;19920;-86
2024/01/07 13:25:00;;;;;;;;;;;;;;;;;;5059056;28;20428;-87
2024/01/07 13:27:45;;;;;;;;;;;;;;;;;;5074746;28;19948;-87
2024/01/07 13:30:30;;;;;;;;;;;;;;;;;;5056313;28;19919;-88
2024/01/07 13:33:17;;;;;;;;;;;;;;;;;;5065090;28;20007;-87
2024/01/07 13:36:03;;;;;;;;;;;;;;;;;;5071092;28;19919;-87
2024/01/07 13:38:49;;;;;;;;;;;;;;;;;;5073698;28;20030;-87
2024/01/07 13:41:34;;;;;;;;;;;;;;;;;;5070066;28;19994;-87
2024/01/07 13:44:18;;;;;;;;;;;;;;;;;;5073723;28;20008;-86
2024/01/07 13:47:05;;;;;;;;;;;;;;;;;;5072006;28;19958;-87
2024/01/07 13:49:49;;;;;;;;;;;;;;;;;;5073360;28;20479;-87
2024/01/07 13:52:34;;;;;;;;;;;;;;;;;;5073092;28;20021;-89
2024/01/07 13:55:19;;;;;;;;;;;;;;;;;;5048811;28;19937;-87
2024/01/07 13:58:04;;;;;;;;;;;;;;;;;;5056321;28;19974;-86
2024/01/07 14:00:48;;;;;;;;;;;;;;;;;;5072493;28;20041;-87
2024/01/07 14:03:33;;;;;;;;;;;;;;;;;;5060513;28;19914;-88
2024/01/07 14:06:18;;;;;;;;;;;;;;;;;;5056466;28;19951;-87
2024/01/07 14:09:03;;;;;;;;;;;;;;;;;;5071597;28;19915;-91
2024/01/07 14:11:47;;;;;;;;;;;;;;;;;;5062135;28;19984;-87
2024/01/07 14:14:32;;;;;;;;;;;;;;;;;;5072294;28;19915;-86
2024/01/07 14:17:17;;;;;;;;;;;;;;;;;;5057640;28;19958;-86
2024/01/07 14:20:01;;;;;;;;;;;;;;;;;;5062866;28;19962;-87
2024/01/07 14:22:46;;;;;;;;;;;;;;;;;;5071753;28;19953;-87
2024/01/07 14:25:31;;;;;;;;;;;;;;;;;;5071804;28;19969;-87
2024/01/07 14:28:16;;;;;;;;;;;;;;;;;;5065577;28;19979;-83
2024/01/07 14:31:00;;;;;;;;;;;;;;;;;;5052167;28;19948;-86
2024/01/07 14:33:45;;;;;;;;;;;;;;;;;;5058564;28;19938;-84
2024/01/07 14:36:29;;;;;;;;;;;;;;;;;;5071594;28;19985;-83
2024/01/07 14:39:14;;;;;;;;;;;;;;;;;;5043376;28;20033;-82
2024/01/07 14:41:59;;;;;;;;;;;;;;;;;;5066917;28;20450;-87
2024/01/07 14:44:44;;;;;;;;;;;;;;;;;;5069478;28;19914;-85
2024/01/07 14:47:28;;;;;;;;;;;;;;;;;;5054125;28;19985;-87
2024/01/07 14:50:13;;;;;;;;;;;;;;;;;;5056452;28;20284;-87
2024/01/07 14:52:58;;;;;;;;;;;;;;;;;;5060682;28;19967;-86
2024/01/07 14:55:42;;;;;;;;;;;;;;;;;;5066414;28;19978;-86
2024/01/07 14:58:27;;;;;;;;;;;;;;;;;;5066896;28;19942;-85
2024/01/07 15:01:12;;;;;;;;;;;;;;;;;;5065280;28;19919;-88
2024/01/07 15:03:56;;;;;;;;;;;;;;;;;;5063415;28;19916;-86
2024/01/07 15:06:41;;;;;;;;;;;;;;;;;;5065630;28;20422;-88
2024/01/07 15:09:26;;;;;;;;;;;;;;;;;;5057288;28;19958;-87
2024/01/07 15:12:10;;;;;;;;;;;;;;;;;;5057016;28;20339;-92
2024/01/07 15:14:55;;;;;;;;;;;;;;;;;;5045076;28;20028;-86
2024/01/07 15:17:40;;;;;;;;;;;;;;;;;;5070933;28;19962;-86
2024/01/07 15:20:25;;;;;;;;;;;;;;;;;;5060927;28;19918;-91
2024/01/07 15:23:09;;;;;;;;;;;;;;;;;;5057898;28;20036;-87
2024/01/07 15:25:54;;;;;;;;;;;;;;;;;;5071077;28;19935;-86
2024/01/07 15:28:39;;;;;;;;;;;;;;;;;;5060731;28;20019;-89
2024/01/07 15:31:24;;;;;;;;;;;;;;;;;;5062716;28;19918;-86
2024/01/07 15:34:09;;;;;;;;;;;;;;;;;;5071010;28;20519;-86
2024/01/07 15:36:53;;;;;;;;;;;;;;;;;;5071294;28;20433;-87
2024/01/07 15:39:38;;;;;;;;;;;;;;;;;;5070875;28;20378;-88
2024/01/07 15:42:23;;;;;;;;;;;;;;;;;;5071279;28;19986;-88
2024/01/07 15:45:09;;;;;;;;;;;;;;;;;;5056269;28;19929;-89
2024/01/07 15:47:53;;;;;;;;;;;;;;;;;;5056447;28;20011;-92
2024/01/07 15:50:38;;;;;;;;;;;;;;;;;;5071227;28;19915;-90
2024/01/07 15:53:26;;;;;;;;;;;;;;;;;;5070515;28;25081;-85
2024/01/07 15:56:11;;;;;;;;;;;;;;;;;;5055501;28;19920;-89
2024/01/07 15:58:56;;;;;;;;;;;;;;;;;;5056425;28;19927;-91
2024/01/07 16:01:40;;;;;;;;;;;;;;;;;;5055229;28;20338;-92
2024/01/07 16:04:25;;;;;;;;;;;;;;;;;;5070327;28;20387;-91
2024/01/07 16:07:13;;;;;;;;;;;;;;;;;;5057042;28;19988;-89
2024/01/07 16:09:57;;;;;;;;;;;;;;;;;;5038725;28;19935;-88
2024/01/07 16:12:45;;;;;;;;;;;;;;;;;;5070388;28;19935;-95
2024/01/07 16:15:29;;;;;;;;;;;;;;;;;;5053973;28;20005;-92
2024/01/07 16:18:14;;;;;;;;;;;;;;;;;;5066770;28;19971;-93
2024/01/07 16:20:59;;;;;;;;;;;;;;;;;;5049502;28;19970;-91
2024/01/07 16:23:46;;;;;;;;;;;;;;;;;;5052915;28;19923;-93
2024/01/07 16:26:31;;;;;;;;;;;;;;;;;;5043660;28;20018;-93
2024/01/07 16:29:16;;;;;;;;;;;;;;;;;;5054387;28;19919;-92
2024/01/07 16:32:00;;;;;;;;;;;;;;;;;;5048421;28;19920;-90
2024/01/07 16:34:46;;;;;;;;;;;;;;;;;;5056522;28;20056;-93
2024/01/07 16:37:31;;;;;;;;;;;;;;;;;;5043845;28;19923;-90
2024/01/07 16:40:16;;;;;;;;;;;;;;;;;;5057126;28;19922;-91
2024/01/07 16:43:02;;;;;;;;;;;;;;;;;;5051031;28;20011;-91
2024/01/07 16:45:46;;;;;;;;;;;;;;;;;;5047585;28;19936;-93
2024/01/07 16:48:31;;;;;;;;;;;;;;;;;;5058903;28;19927;-92
2024/01/07 16:51:16;;;;;;;;;;;;;;;;;;5054295;28;19989;-92
2024/01/07 16:54:00;;;;;;;;;;;;;;;;;;5056702;28;20382;-87
2024/01/07 16:56:45;;;;;;;;;;;;;;;;;;5045195;28;20819;-90
2024/01/07 16:59:30;;;;;;;;;;;;;;;;;;5054722;28;19927;-91
2024/01/07 17:02:15;;;;;;;;;;;;;;;;;;5061970;28;20016;-91
2024/01/07 17:05:01;;;;;;;;;;;;;;;;;;5055969;28;19961;-90
2024/01/07 17:07:45;;;;;;;;;;;;;;;;;;5071268;28;19958;-91
2024/01/07 17:10:30;;;;;;;;;;;;;;;;;;5071042;28;19958;-90
2024/01/07 17:13:14;;;;;;;;;;;;;;;;;;5055223;28;19993;-91
2024/01/07 17:16:02;;;;;;;;;;;;;;;;;;5075794;28;20701;-91
2024/01/07 17:18:46;;;;;;;;;;;;;;;;;;5060869;28;19923;-93
2024/01/07 17:21:31;;;;;;;;;;;;;;;;;;5064478;28;20025;-90
2024/01/07 17:24:16;;;;;;;;;;;;;;;;;;5076276;28;20001;-90
2024/01/07 17:27:00;;;;;;;;;;;;;;;;;;5076313;28;19970;-89
2024/01/07 17:29:46;;;;;;;;;;;;;;;;;;5090929;28;20004;-90
2024/01/07 17:32:31;;;;;;;;;;;;;;;;;;5090649;28;19918;-91
2024/01/07 17:35:16;;;;;;;;;;;;;;;;;;5075274;28;20093;-89
2024/01/07 17:38:00;;;;;;;;;;;;;;;;;;5075759;28;19965;-91
2024/01/07 17:40:45;;;;;;;;;;;;;;;;;;5064652;28;20006;-92
2024/01/07 17:43:30;;;;;;;;;;;;;;;;;;5090533;28;19965;-91
2024/01/07 17:46:15;;;;;;;;;;;;;;;;;;5074472;28;19962;-91
2024/01/07 17:49:00;;;;;;;;;;;;;;;;;;5075214;28;19926;-91
2024/01/07 17:51:44;;;;;;;;;;;;;;;;;;5084796;28;19963;-88
2024/01/07 17:54:29;;;;;;;;;;;;;;;;;;5073541;28;19919;-89
2024/01/07 17:57:14;;;;;;;;;;;;;;;;;;5088940;28;19927;-85
2024/01/07 17:59:59;;;;;;;;;;;;;;;;;;5073662;28;19923;-90
2024/01/07 18:02:44;;;;;;;;;;;;;;;;;;5088926;28;19919;-89
2024/01/07 18:05:28;;;;;;;;;;;;;;;;;;5065187;28;20379;-85
2024/01/07 18:08:15;;;;;;;;;;;;;;;;;;5090308;28;19964;-85
2024/01/07 18:11:00;;;;;;;;;;;;;;;;;;5089727;28;20028;-85
2024/01/07 18:13:45;;;;;;;;;;;;;;;;;;5065655;28;20415;-88
2024/01/07 18:16:29;;;;;;;;;;;;;;;;;;5061509;28;19996;-85
2024/01/07 18:19:14;;;;;;;;;;;;;;;;;;5069464;28;19923;-80
2024/01/07 18:21:59;;;;;;;;;;;;;;;;;;5053609;28;19919;-86
2024/01/07 18:24:43;;;;;;;;;;;;;;;;;;5046205;28;20033;-86
2024/01/07 18:27:28;;;;;;;;;;;;;;;;;;5068416;28;19978;-85
2024/01/07 18:30:13;;;;;;;;;;;;;;;;;;5068535;28;19958;-85
2024/01/07 18:32:58;;;;;;;;;;;;;;;;;;5064245;28;20476;-86
2024/01/07 18:35:42;;;;;;;;;;;;;;;;;;5052978;28;20436;-86
2024/01/07 18:38:27;;;;;;;;;;;;;;;;;;5063798;28;19992;-87
2024/01/07 18:41:12;;;;;;;;;;;;;;;;;;5053429;28;19919;-86
2024/01/07 18:43:57;;;;;;;;;;;;;;;;;;5069096;28;19915;-88
2024/01/07 18:46:44;;;;;;;;;;;;;;;;;;5052939;28;20427;-89